»·PEaware :: N7886N KBZN-KBIL

N7886N :: KBZN-KBIL

FLIGHT INFORMATION

Flight Status: Arrived
Operator: Privately registered:
United States
More flights under this callsign
Pilot: Lake Area Tech (24716)
Aircraft: CESSNA 172 SKYHAWK
(C172)
More flights by this aircraft type
Origin: KBZN Gallatin
United States
Destination: KBIL Billings Logan Intl
United States
More flights between these airports :: More routes between these airports
Route: +BZN6 LVM V2 BIL
File this flight plan on PilotEdge
Remarks: +CW /
Altitude:
(Current/Filed)
11,000ft
Speed:
(Current/Filed)
110kts
Departed: 14-Feb-20 11:46 AM
Arrived: 14-Feb-20 12:56 PM
Distance/Time
Traveled:
109nm/1:09
Distance/Time
To Go:
Arrived

Flight Plot

Page will automatically refresh every two minutes.

Flight plan parsing failed; only flown route is shown


Map Options




Map Legend


Flown Route
Filed Route
Departure Airport
Arrival Airport
Navaid (VOR, NDB)
Fix

Horizontal Profiles

Position Reports

Time Latitude Longitude Heading Altitude Ground
Speed
14-Feb-20 11:19 45.773170 -111.152194 225 4475ft 0kts
14-Feb-20 11:20 45.773170 -111.152194 225 4475ft 0kts
14-Feb-20 11:21 45.773170 -111.152194 225 4475ft 0kts
14-Feb-20 11:22 45.773170 -111.152191 45 4475ft 0kts
14-Feb-20 11:22 45.773170 -111.152191 45 4475ft 0kts
14-Feb-20 11:24 45.773170 -111.152191 45 4475ft 0kts
14-Feb-20 11:25 45.773170 -111.152191 45 4475ft 0kts
14-Feb-20 11:25 45.773170 -111.152191 45 4475ft 0kts
14-Feb-20 11:26 45.773170 -111.152191 45 4475ft 0kts
14-Feb-20 11:28 45.773170 -111.152191 45 4475ft 0kts
14-Feb-20 11:28 45.773170 -111.152191 45 4475ft 0kts
14-Feb-20 11:29 45.773170 -111.152191 45 4475ft 0kts
14-Feb-20 11:30 45.773170 -111.152191 45 4475ft 0kts
14-Feb-20 11:31 45.773170 -111.152191 45 4475ft 0kts
14-Feb-20 11:32 45.773170 -111.152191 45 4475ft 0kts
14-Feb-20 11:33 45.773170 -111.152191 45 4475ft 0kts
14-Feb-20 11:34 45.773170 -111.152191 45 4475ft 0kts
14-Feb-20 11:35 45.773170 -111.152191 45 4475ft 0kts
14-Feb-20 11:36 45.773170 -111.152191 45 4475ft 0kts
14-Feb-20 11:37 45.773170 -111.152191 45 4475ft 0kts
14-Feb-20 11:38 45.773515 -111.151717 44 4475ft 7kts
14-Feb-20 11:39 45.771832 -111.147926 135 4475ft 17kts
14-Feb-20 11:40 45.769443 -111.145249 76 4475ft 0kts
14-Feb-20 11:41 45.769443 -111.145249 76 4475ft 0kts
14-Feb-20 11:42 45.769459 -111.145161 75 4474ft 3kts
14-Feb-20 11:43 45.769294 -111.143852 50 4475ft 0kts
14-Feb-20 11:44 45.770737 -111.142337 321 4475ft 12kts
14-Feb-20 11:45 45.783615 -111.162773 283 5180ft 87kts
14-Feb-20 11:46 45.769426 -111.187555 230 6296ft 90kts
14-Feb-20 11:47 45.758600 -111.218140 246 7375ft 88kts
14-Feb-20 11:48 45.747049 -111.248752 243 8370ft 88kts
14-Feb-20 11:49 45.734964 -111.279440 241 9285ft 90kts
14-Feb-20 11:50 45.722482 -111.311140 243 10136ft 93kts
14-Feb-20 11:51 45.711133 -111.344059 272 10933ft 95kts
14-Feb-20 11:52 45.731272 -111.351008 79 11177ft 125kts
14-Feb-20 11:53 45.729211 -111.300725 93 11001ft 127kts
14-Feb-20 11:54 45.728784 -111.251344 95 10847ft 125kts
14-Feb-20 11:55 45.726500 -111.203667 94 10865ft 113kts
14-Feb-20 11:56 45.724298 -111.158584 96 10868ft 111kts
14-Feb-20 11:57 45.722759 -111.114042 92 10866ft 111kts
14-Feb-20 11:58 45.721507 -111.070054 91 10897ft 108kts
14-Feb-20 11:59 45.720584 -111.027292 91 10929ft 107kts
14-Feb-20 12:00 45.720302 -110.984278 91 10938ft 108kts
14-Feb-20 12:01 45.720015 -110.941149 95 10928ft 109kts
14-Feb-20 12:02 45.717468 -110.898591 88 10851ft 110kts
14-Feb-20 12:03 45.716972 -110.851870 90 11011ft 122kts
14-Feb-20 12:04 45.716086 -110.802170 93 11086ft 129kts
14-Feb-20 12:05 45.713348 -110.752145 97 11144ft 122kts
14-Feb-20 12:06 45.711556 -110.703698 82 11007ft 122kts
14-Feb-20 12:07 45.711286 -110.655913 96 10916ft 119kts
14-Feb-20 12:08 45.708007 -110.609274 94 10873ft 116kts
14-Feb-20 12:09 45.706374 -110.564368 87 10929ft 108kts
14-Feb-20 12:10 45.706285 -110.521084 90 10956ft 108kts
14-Feb-20 12:11 45.702768 -110.478400 92 10966ft 109kts
14-Feb-20 12:12 45.703619 -110.434391 88 10985ft 115kts
14-Feb-20 12:13 45.706995 -110.388292 80 11058ft 119kts
14-Feb-20 12:14 45.711824 -110.339856 84 11126ft 127kts
14-Feb-20 12:15 45.713242 -110.287851 90 11085ft 129kts
14-Feb-20 12:16 45.711896 -110.236056 88 11079ft 130kts
14-Feb-20 12:17 45.716316 -110.184132 81 11052ft 131kts
14-Feb-20 12:18 45.722125 -110.132950 83 11065ft 130kts
14-Feb-20 12:19 45.724509 -110.081140 87 11061ft 131kts
14-Feb-20 12:20 45.727018 -110.029367 86 11067ft 130kts
14-Feb-20 12:21 45.730426 -109.977483 82 11062ft 131kts
14-Feb-20 12:22 45.735000 -109.925923 84 11062ft 130kts
14-Feb-20 12:23 45.737330 -109.873858 83 11061ft 130kts
14-Feb-20 12:24 45.740783 -109.822043 83 11061ft 131kts
14-Feb-20 12:25 45.744806 -109.770503 85 11053ft 131kts
14-Feb-20 12:26 45.747583 -109.718492 85 11044ft 129kts
14-Feb-20 12:27 45.749935 -109.669759 86 11008ft 119kts
14-Feb-20 12:28 45.751450 -109.623061 85 10990ft 115kts
14-Feb-20 12:29 45.754704 -109.577948 84 11006ft 113kts
14-Feb-20 12:30 45.756828 -109.532668 85 10965ft 115kts
14-Feb-20 12:31 45.760376 -109.482380 80 10353ft 135kts
14-Feb-20 12:32 45.769776 -109.431899 68 9928ft 130kts
14-Feb-20 12:33 45.783810 -109.384288 66 9472ft 131kts
14-Feb-20 12:34 45.798730 -109.336970 67 9008ft 131kts
14-Feb-20 12:35 45.807321 -109.287137 80 8621ft 127kts
14-Feb-20 12:36 45.816008 -109.237617 74 8132ft 133kts
14-Feb-20 12:37 45.823064 -109.186587 80 7690ft 129kts
14-Feb-20 12:38 45.831362 -109.136342 77 7232ft 130kts
14-Feb-20 12:39 45.838564 -109.087138 76 7049ft 123kts
14-Feb-20 12:40 45.845542 -109.039290 81 7046ft 122kts
14-Feb-20 12:41 45.851712 -108.991782 72 7063ft 121kts
14-Feb-20 12:42 45.860212 -108.945039 76 7061ft 123kts
14-Feb-20 12:43 45.868648 -108.899452 73 6984ft 106kts
14-Feb-20 12:44 45.874786 -108.865569 75 6561ft 79kts
14-Feb-20 12:45 45.880268 -108.834819 78 6050ft 83kts
14-Feb-20 12:46 45.880953 -108.801159 113 5484ft 81kts
14-Feb-20 12:47 45.873336 -108.771481 109 5165ft 76kts
14-Feb-20 12:48 45.864656 -108.741286 111 5304ft 92kts
14-Feb-20 12:49 45.854941 -108.706463 112 5308ft 90kts
14-Feb-20 12:50 45.845624 -108.673135 111 5293ft 92kts
14-Feb-20 12:51 45.836151 -108.639035 110 5065ft 92kts
14-Feb-20 12:52 45.826372 -108.603046 111 4265ft 95kts
14-Feb-20 12:53 45.817042 -108.570421 112 3870ft 84kts
14-Feb-20 12:54 45.809471 -108.543425 109 3655ft 45kts
14-Feb-20 12:55 45.806695 -108.537621 202 3654ft 0kts
14-Feb-20 12:56 45.805403 -108.537792 161 3655ft 18kts

Navigation Log

Ident Type
Flight plan parsing failed, navigation log unavailable